createdAt,value
2023-05-16T00:01:23.145Z,100639.50
2023-05-16T00:06:25.840Z,100649.56
2023-05-16T00:11:29.921Z,100663.25
2023-05-16T00:16:32.961Z,100668.09
2023-05-16T00:21:35.850Z,100685.66
2023-05-16T00:26:39.862Z,100708.88
2023-05-16T00:31:42.608Z,100708.59
2023-05-16T00:36:45.440Z,100719.31
2023-05-16T00:41:49.518Z,100746.06
2023-05-16T00:46:52.523Z,100751.63
2023-05-16T00:51:55.626Z,100748.50
2023-05-16T00:57:00.491Z,100764.50
2023-05-16T01:02:03.605Z,100776.94
2023-05-16T01:07:06.627Z,100787.84
2023-05-16T01:12:15.990Z,100809.72
2023-05-16T01:17:23.798Z,100816.16
2023-05-16T01:22:33.300Z,100817.75
2023-05-16T01:27:39.999Z,100830.72
2023-05-16T01:32:42.909Z,100851.66
2023-05-16T01:37:51.528Z,100867.53
2023-05-16T01:42:56.286Z,100880.78
2023-05-16T01:48:06.714Z,100915.84
2023-05-16T01:53:13.456Z,100941.69
2023-05-16T01:58:19.176Z,100987.31
2023-05-16T02:03:21.992Z,101020.22
2023-05-16T02:08:25.004Z,101049.97
2023-05-16T02:13:29.073Z,101070.09
2023-05-16T02:18:32.155Z,101125.91
2023-05-16T02:23:35.276Z,101177.00
2023-05-16T02:28:39.345Z,101219.19
2023-05-16T02:33:42.226Z,101233.97
2023-05-16T02:38:45.461Z,101261.97
2023-05-16T02:43:49.804Z,101299.28
2023-05-16T02:48:52.561Z,101335.69
2023-05-16T02:53:56.968Z,101375.00
2023-05-16T02:59:01.318Z,101420.31
2023-05-16T03:04:04.226Z,101431.56
2023-05-16T03:09:07.748Z,101436.56
2023-05-16T03:14:12.124Z,101483.94
2023-05-16T03:19:15.133Z,101511.16
2023-05-16T03:24:17.942Z,101520.22
2023-05-16T03:29:22.149Z,101561.28
2023-05-16T03:34:24.894Z,101608.50
2023-05-16T03:39:27.842Z,101646.28
2023-05-16T03:44:32.044Z,101679.41
2023-05-16T03:49:34.824Z,101715.47
2023-05-16T03:54:37.650Z,101715.94
2023-05-16T03:59:41.751Z,101736.22
2023-05-16T04:04:44.447Z,101770.34
2023-05-16T04:09:47.153Z,101791.63
2023-05-16T04:14:51.181Z,101812.66
2023-05-16T04:19:54.112Z,101834.69
2023-05-16T04:24:57.048Z,101847.19
2023-05-16T04:30:02.211Z,101886.22
2023-05-16T04:35:05.140Z,101899.88
2023-05-16T04:40:09.896Z,101954.34
2023-05-16T04:45:14.607Z,101969.84
2023-05-16T04:50:18.121Z,101998.59
2023-05-16T04:55:20.865Z,102017.38
2023-05-16T05:00:26.367Z,102026.97
2023-05-16T05:05:29.606Z,102036.50
2023-05-16T05:10:32.615Z,102036.59
2023-05-16T05:15:36.703Z,102037.06
2023-05-16T05:20:39.420Z,102063.84
2023-05-16T05:25:42.187Z,102030.44
2023-05-16T05:30:46.754Z,102050.06
2023-05-16T05:35:49.455Z,102043.06
2023-05-16T05:40:52.201Z,102050.56
2023-05-16T05:45:56.638Z,102040.41
2023-05-16T05:50:59.448Z,102051.63
2023-05-16T05:56:02.184Z,102033.22
2023-05-16T06:01:06.320Z,102060.09
2023-05-16T06:06:09.641Z,102090.97
2023-05-16T06:11:12.353Z,102085.72
2023-05-16T06:16:16.435Z,102094.97
2023-05-16T06:21:19.209Z,102075.63
2023-05-16T06:26:22.707Z,101999.88
2023-05-16T06:31:26.857Z,101985.69
2023-05-16T06:36:30.045Z,101947.00
2023-05-16T06:41:33.018Z,101914.59
2023-05-16T06:46:37.248Z,101853.00
2023-05-16T06:51:40.478Z,101792.63
2023-05-16T06:56:43.206Z,101805.47
2023-05-16T07:01:47.452Z,101763.00
2023-05-16T07:06:50.552Z,101680.22
2023-05-16T07:11:53.341Z,101585.84
2023-05-16T07:16:57.592Z,101531.00
2023-05-16T07:22:00.415Z,101507.28
2023-05-16T07:27:03.234Z,101398.66
2023-05-16T07:32:08.580Z,101362.53
2023-05-16T07:37:13.045Z,101288.06
2023-05-16T07:42:15.889Z,101279.22
2023-05-16T07:47:19.982Z,101225.72
2023-05-16T07:52:22.830Z,101203.03
2023-05-16T07:57:25.760Z,101177.66
2023-05-16T08:02:31.020Z,101167.75
2023-05-16T08:07:34.301Z,101153.63
2023-05-16T08:12:37.472Z,101124.03
2023-05-16T08:17:41.689Z,101095.66
2023-05-16T08:22:44.495Z,101106.19
2023-05-16T08:27:47.348Z,101097.41
2023-05-16T08:32:51.539Z,101090.41
2023-05-16T08:37:54.359Z,101079.41
2023-05-16T08:42:57.406Z,101064.13
2023-05-16T08:48:03.761Z,101042.09
2023-05-16T08:53:08.964Z,101012.53
2023-05-16T08:58:12.434Z,101033.22
2023-05-16T09:03:17.207Z,101023.75
2023-05-16T09:08:20.567Z,101024.09
2023-05-16T09:13:23.498Z,100993.44
2023-05-16T09:18:27.820Z,100971.69
2023-05-16T09:23:30.683Z,100952.28
2023-05-16T09:28:33.426Z,100942.06
2023-05-16T09:33:37.532Z,100960.09
2023-05-16T09:38:40.957Z,100953.97
2023-05-16T09:43:44.074Z,100956.06
2023-05-16T09:48:48.560Z,100947.09
2023-05-16T09:53:51.503Z,100924.53
2023-05-16T09:58:54.292Z,100904.50
2023-05-16T10:03:58.450Z,100914.09
2023-05-16T10:09:03.064Z,100904.59
2023-05-16T10:14:07.917Z,100908.44
2023-05-16T10:19:12.676Z,100888.81
2023-05-16T10:24:16.885Z,100865.81
2023-05-16T10:29:20.816Z,100891.47
2023-05-16T10:34:24.949Z,100878.56
2023-05-16T10:39:28.344Z,100875.66
2023-05-16T10:44:33.344Z,100878.69
2023-05-16T10:49:41.650Z,100869.94
2023-05-16T10:54:45.602Z,100874.22
2023-05-16T10:59:49.452Z,100880.75
2023-05-16T11:04:54.337Z,100874.38
2023-05-16T11:10:06.174Z,100879.84
2023-05-16T11:15:23.447Z,100878.47
2023-05-16T11:20:29.120Z,100880.84
2023-05-16T11:25:39.243Z,100888.16
2023-05-16T11:30:44.481Z,100889.69
2023-05-16T11:36:14.407Z,100891.72
2023-05-16T11:41:21.862Z,100894.97
2023-05-16T11:46:24.702Z,100896.81
2023-05-16T11:51:29.061Z,100895.31
2023-05-16T11:56:32.253Z,100889.63
2023-05-16T12:01:36.309Z,100901.94
2023-05-16T12:06:41.087Z,100892.50
2023-05-16T12:11:45.312Z,100892.53
2023-05-16T12:16:49.313Z,100898.25
2023-05-16T12:21:55.372Z,100895.22
2023-05-16T12:26:58.937Z,100901.75
2023-05-16T12:32:01.784Z,100886.81
2023-05-16T12:37:06.350Z,100855.47
2023-05-16T12:42:09.695Z,100874.31
2023-05-16T12:47:13.689Z,100851.34
2023-05-16T12:52:20.519Z,100847.81
2023-05-16T12:57:23.298Z,100855.03
2023-05-16T13:02:26.332Z,100848.03
2023-05-16T13:07:30.665Z,100849.84
2023-05-16T13:12:33.465Z,100842.13
2023-05-16T13:17:36.559Z,100840.19
2023-05-16T13:22:40.802Z,100839.53
2023-05-16T13:27:43.989Z,100846.28
2023-05-16T13:32:46.812Z,100826.66
2023-05-16T13:37:51.060Z,100825.38
2023-05-16T13:42:53.852Z,100817.00
2023-05-16T13:47:56.722Z,100833.59
2023-05-16T13:53:00.952Z,100828.91
2023-05-16T13:58:04.053Z,100825.22
2023-05-16T14:03:06.906Z,100838.63
2023-05-16T14:08:11.154Z,100845.31
2023-05-16T14:13:14.056Z,100837.88
2023-05-16T14:18:16.905Z,100831.78
2023-05-16T14:23:21.125Z,100850.44
2023-05-16T14:28:23.909Z,100841.22
2023-05-16T14:33:26.662Z,100847.97
2023-05-16T14:38:30.753Z,100851.97
2023-05-16T14:43:33.475Z,100855.50
2023-05-16T14:48:36.561Z,100855.94
2023-05-16T14:53:40.668Z,100859.94
2023-05-16T14:58:43.518Z,100861.19
2023-05-16T15:03:54.555Z,100858.38
2023-05-16T15:09:00.485Z,100869.69
2023-05-16T15:14:03.284Z,100875.72
2023-05-16T15:19:06.138Z,100883.06
2023-05-16T15:24:12.245Z,100872.75
2023-05-16T15:29:15.041Z,100871.31
2023-05-16T15:34:17.828Z,100881.97
2023-05-16T15:39:21.937Z,100879.66
2023-05-16T15:44:24.712Z,100885.56
2023-05-16T15:49:27.456Z,100890.50
2023-05-16T15:54:31.571Z,100892.69
2023-05-16T15:59:34.407Z,100885.06
2023-05-16T16:04:37.222Z,100896.81
2023-05-16T16:09:41.343Z,100897.69
2023-05-16T16:14:44.383Z,100892.53
2023-05-16T16:19:47.188Z,100897.13
2023-05-16T16:24:51.375Z,100891.44
2023-05-16T16:29:54.133Z,100902.25
2023-05-16T16:34:57.053Z,100903.50
2023-05-16T16:40:01.133Z,100904.63
2023-05-16T16:45:04.123Z,100916.06
2023-05-16T16:50:07.760Z,100917.25
2023-05-16T16:55:13.059Z,100918.00
2023-05-16T17:00:16.508Z,100919.34
2023-05-16T17:05:19.455Z,100929.91
2023-05-16T17:10:23.591Z,100931.84
2023-05-16T17:15:26.737Z,100931.34
2023-05-16T17:20:29.613Z,100944.25
2023-05-16T17:25:33.763Z,100958.66
2023-05-16T17:30:36.562Z,100974.13
2023-05-16T17:35:40.672Z,100977.22
2023-05-16T17:40:44.824Z,100986.81
2023-05-16T17:45:48.068Z,100998.88
2023-05-16T17:50:51.033Z,100994.13
2023-05-16T17:55:55.281Z,100987.94
2023-05-16T18:00:58.074Z,100987.28
2023-05-16T18:06:00.941Z,100995.00
2023-05-16T18:11:05.100Z,101009.94
2023-05-16T18:16:08.659Z,101017.94
2023-05-16T18:21:11.509Z,101023.53
2023-05-16T18:26:17.210Z,101026.13
2023-05-16T18:31:20.440Z,101035.28
2023-05-16T18:36:23.208Z,101041.25
2023-05-16T18:41:27.394Z,101044.94
2023-05-16T18:46:30.234Z,101064.47
2023-05-16T18:51:33.016Z,101076.63
2023-05-16T18:56:37.341Z,101087.03
2023-05-16T19:01:40.286Z,101098.91
2023-05-16T19:06:42.994Z,101107.97
2023-05-16T19:11:47.787Z,101114.41
2023-05-16T19:16:51.086Z,101121.34
2023-05-16T19:21:53.922Z,101120.69
2023-05-16T19:26:58.104Z,101130.16
2023-05-16T19:32:03.265Z,101119.69
2023-05-16T19:37:06.310Z,101128.00
2023-05-16T19:42:10.511Z,101123.50
2023-05-16T19:47:13.334Z,101130.56
2023-05-16T19:52:16.150Z,101136.38
2023-05-16T19:57:20.355Z,101134.88
2023-05-16T20:02:24.527Z,101134.06
2023-05-16T20:07:27.624Z,101138.91
2023-05-16T20:12:31.808Z,101144.91
2023-05-16T20:17:34.731Z,101140.34
2023-05-16T20:22:38.647Z,101140.06
2023-05-16T20:27:42.795Z,101157.41
2023-05-16T20:32:45.672Z,101157.09
2023-05-16T20:37:48.478Z,101161.66
2023-05-16T20:42:52.556Z,101159.34
2023-05-16T20:47:55.767Z,101158.53
2023-05-16T20:52:58.669Z,101163.91
2023-05-16T20:58:02.866Z,101167.63
2023-05-16T21:03:05.771Z,101170.09
2023-05-16T21:08:08.675Z,101161.06
2023-05-16T21:13:12.770Z,101167.75
2023-05-16T21:18:15.690Z,101169.72
2023-05-16T21:23:18.553Z,101165.78
2023-05-16T21:28:22.656Z,101157.75
2023-05-16T21:33:25.671Z,101164.69
2023-05-16T21:38:28.498Z,101170.00
2023-05-16T21:43:32.577Z,101165.44
2023-05-16T21:48:35.574Z,101169.44
2023-05-16T21:53:38.676Z,101169.53
2023-05-16T21:58:43.291Z,101167.56
2023-05-16T22:03:46.535Z,101168.75
2023-05-16T22:08:49.392Z,101166.31
2023-05-16T22:13:53.512Z,101161.88
2023-05-16T22:18:56.386Z,101167.56
2023-05-16T22:23:59.216Z,101158.50
2023-05-16T22:29:03.324Z,101158.69
2023-05-16T22:34:06.113Z,101150.78
2023-05-16T22:39:08.961Z,101158.69
2023-05-16T22:44:13.072Z,101155.16
2023-05-16T22:49:16.332Z,101165.56
2023-05-16T22:54:19.097Z,101172.09
2023-05-16T22:59:23.177Z,101167.66
2023-05-16T23:04:26.032Z,101166.09
2023-05-16T23:09:29.346Z,101175.72
2023-05-16T23:14:33.451Z,101177.00
2023-05-16T23:19:36.386Z,101168.38
2023-05-16T23:24:39.189Z,101173.78
2023-05-16T23:29:43.310Z,101174.75
2023-05-16T23:34:46.077Z,101178.75
2023-05-16T23:39:48.850Z,101186.69
2023-05-16T23:44:53.029Z,101187.44
2023-05-16T23:49:55.860Z,101187.59
2023-05-16T23:54:58.629Z,101195.88
